sensor_id;sensor_type;location;lat;lon;timestamp;pressure;altitude;pressure_sealevel;temperature;humidity
70546;BME280;58098;51.680;5.134;2023-04-23T00:00:11;100796.00;;;7.02;100.00
70546;BME280;58098;51.680;5.134;2023-04-23T00:02:38;100802.84;;;7.03;100.00
70546;BME280;58098;51.680;5.134;2023-04-23T00:05:04;100797.03;;;6.99;100.00
70546;BME280;58098;51.680;5.134;2023-04-23T00:07:32;100796.28;;;6.97;100.00
70546;BME280;58098;51.680;5.134;2023-04-23T00:09:58;100788.31;;;7.00;100.00
70546;BME280;58098;51.680;5.134;2023-04-23T00:12:25;100774.28;;;6.90;100.00
70546;BME280;58098;51.680;5.134;2023-04-23T00:14:51;100767.34;;;6.91;100.00
70546;BME280;58098;51.680;5.134;2023-04-23T00:17:16;100772.94;;;6.97;100.00
70546;BME280;58098;51.680;5.134;2023-04-23T00:19:41;100777.72;;;6.91;100.00
70546;BME280;58098;51.680;5.134;2023-04-23T00:22:07;100766.88;;;6.84;100.00
70546;BME280;58098;51.680;5.134;2023-04-23T00:24:32;100772.53;;;6.91;100.00
70546;BME280;58098;51.680;5.134;2023-04-23T00:27:00;100774.28;;;6.90;100.00
70546;BME280;58098;51.680;5.134;2023-04-23T00:29:26;100775.19;;;6.89;100.00
70546;BME280;58098;51.680;5.134;2023-04-23T00:31:51;100752.56;;;6.79;100.00
70546;BME280;58098;51.680;5.134;2023-04-23T00:34:17;100771.25;;;6.84;100.00
70546;BME280;58098;51.680;5.134;2023-04-23T00:36:42;100779.78;;;6.86;100.00
70546;BME280;58098;51.680;5.134;2023-04-23T00:39:07;100773.94;;;6.82;100.00
70546;BME280;58098;51.680;5.134;2023-04-23T00:41:34;100759.59;;;6.77;100.00
70546;BME280;58098;51.680;5.134;2023-04-23T00:43:59;100751.94;;;6.75;100.00
70546;BME280;58098;51.680;5.134;2023-04-23T00:46:25;100754.53;;;6.75;100.00
70546;BME280;58098;51.680;5.134;2023-04-23T00:48:53;100748.59;;;6.73;100.00
70546;BME280;58098;51.680;5.134;2023-04-23T00:51:20;100740.09;;;6.71;100.00
70546;BME280;58098;51.680;5.134;2023-04-23T00:53:47;100749.88;;;6.80;100.00
70546;BME280;58098;51.680;5.134;2023-04-23T00:56:12;100738.03;;;6.76;100.00
70546;BME280;58098;51.680;5.134;2023-04-23T00:58:38;100733.47;;;6.80;100.00
70546;BME280;58098;51.680;5.134;2023-04-23T01:01:04;100737.75;;;6.81;100.00
70546;BME280;58098;51.680;5.134;2023-04-23T01:03:30;100746.91;;;6.86;100.00
70546;BME280;58098;51.680;5.134;2023-04-23T01:05:57;100720.44;;;6.81;100.00
70546;BME280;58098;51.680;5.134;2023-04-23T01:08:23;100725.38;;;6.84;100.00
70546;BME280;58098;51.680;5.134;2023-04-23T01:10:50;100720.19;;;6.84;100.00
70546;BME280;58098;51.680;5.134;2023-04-23T01:13:16;100725.19;;;6.87;100.00
70546;BME280;58098;51.680;5.134;2023-04-23T01:15:43;100729.47;;;6.88;100.00
70546;BME280;58098;51.680;5.134;2023-04-23T01:18:09;100726.41;;;6.82;100.00
70546;BME280;58098;51.680;5.134;2023-04-23T01:20:35;100725.91;;;6.89;100.00
70546;BME280;58098;51.680;5.134;2023-04-23T01:23:02;100717.59;;;6.84;100.00
70546;BME280;58098;51.680;5.134;2023-04-23T01:25:28;100695.31;;;6.82;100.00
70546;BME280;58098;51.680;5.134;2023-04-23T01:27:54;100705.91;;;6.91;100.00
70546;BME280;58098;51.680;5.134;2023-04-23T01:30:20;100709.13;;;6.95;100.00
70546;BME280;58098;51.680;5.134;2023-04-23T01:32:46;100718.81;;;7.05;100.00
70546;BME280;58098;51.680;5.134;2023-04-23T01:35:12;100713.50;;;7.07;100.00
70546;BME280;58098;51.680;5.134;2023-04-23T01:37:38;100709.47;;;7.03;100.00
70546;BME280;58098;51.680;5.134;2023-04-23T01:40:05;100707.81;;;7.14;100.00
70546;BME280;58098;51.680;5.134;2023-04-23T01:42:32;100702.81;;;7.11;100.00
70546;BME280;58098;51.680;5.134;2023-04-23T01:44:57;100705.75;;;7.19;100.00
70546;BME280;58098;51.680;5.134;2023-04-23T01:47:23;100694.66;;;7.17;100.00
70546;BME280;58098;51.680;5.134;2023-04-23T01:49:49;100706.34;;;7.23;100.00
70546;BME280;58098;51.680;5.134;2023-04-23T01:52:14;100705.53;;;7.22;100.00
70546;BME280;58098;51.680;5.134;2023-04-23T01:54:40;100704.91;;;7.19;100.00
70546;BME280;58098;51.680;5.134;2023-04-23T01:57:05;100694.41;;;7.20;100.00
70546;BME280;58098;51.680;5.134;2023-04-23T01:59:31;100687.47;;;7.21;100.00
70546;BME280;58098;51.680;5.134;2023-04-23T02:01:56;100694.94;;;7.25;100.00
70546;BME280;58098;51.680;5.134;2023-04-23T02:04:21;100698.78;;;7.32;100.00
70546;BME280;58098;51.680;5.134;2023-04-23T02:06:49;100685.41;;;7.26;100.00
70546;BME280;58098;51.680;5.134;2023-04-23T02:09:15;100689.75;;;7.25;100.00
70546;BME280;58098;51.680;5.134;2023-04-23T02:11:40;100699.94;;;7.28;100.00
70546;BME280;58098;51.680;5.134;2023-04-23T02:14:06;100697.34;;;7.28;100.00
70546;BME280;58098;51.680;5.134;2023-04-23T02:16:33;100684.25;;;7.17;100.00
70546;BME280;58098;51.680;5.134;2023-04-23T02:18:59;100686.44;;;7.23;100.00
70546;BME280;58098;51.680;5.134;2023-04-23T02:21:26;100691.31;;;7.28;100.00
70546;BME280;58098;51.680;5.134;2023-04-23T02:23:53;100694.00;;;7.26;100.00
70546;BME280;58098;51.680;5.134;2023-04-23T02:26:18;100695.16;;;7.22;100.00
70546;BME280;58098;51.680;5.134;2023-04-23T02:28:44;100705.22;;;7.27;100.00
70546;BME280;58098;51.680;5.134;2023-04-23T02:31:10;100699.31;;;7.25;100.00
70546;BME280;58098;51.680;5.134;2023-04-23T02:33:35;100707.00;;;7.26;100.00
70546;BME280;58098;51.680;5.134;2023-04-23T02:36:01;100697.34;;;7.28;100.00
70546;BME280;58098;51.680;5.134;2023-04-23T02:38:26;100688.63;;;7.29;100.00
70546;BME280;58098;51.680;5.134;2023-04-23T02:40:51;100697.00;;;7.33;100.00
70546;BME280;58098;51.680;5.134;2023-04-23T02:43:17;100675.97;;;7.25;100.00
70546;BME280;58098;51.680;5.134;2023-04-23T02:45:42;100688.72;;;7.28;100.00
70546;BME280;58098;51.680;5.134;2023-04-23T02:48:09;100675.66;;;7.29;100.00
70546;BME280;58098;51.680;5.134;2023-04-23T02:50:35;100671.06;;;7.20;100.00
70546;BME280;58098;51.680;5.134;2023-04-23T02:53:03;100682.72;;;7.27;100.00
70546;BME280;58098;51.680;5.134;2023-04-23T02:55:28;100670.66;;;7.26;100.00
70546;BME280;58098;51.680;5.134;2023-04-23T02:57:56;100674.94;;;7.27;100.00
70546;BME280;58098;51.680;5.134;2023-04-23T03:00:21;100671.81;;;7.22;100.00
70546;BME280;58098;51.680;5.134;2023-04-23T03:02:46;100681.97;;;7.25;100.00
70546;BME280;58098;51.680;5.134;2023-04-23T03:05:12;100675.22;;;7.23;100.00
70546;BME280;58098;51.680;5.134;2023-04-23T03:07:37;100664.75;;;7.12;100.00
70546;BME280;58098;51.680;5.134;2023-04-23T03:10:03;100677.28;;;7.18;100.00
70546;BME280;58098;51.680;5.134;2023-04-23T03:12:29;100679.38;;;7.13;100.00
70546;BME280;58098;51.680;5.134;2023-04-23T03:14:54;100676.03;;;7.11;100.00
70546;BME280;58098;51.680;5.134;2023-04-23T03:17:20;100671.16;;;7.06;100.00
70546;BME280;58098;51.680;5.134;2023-04-23T03:19:45;100677.00;;;7.10;100.00
70546;BME280;58098;51.680;5.134;2023-04-23T03:22:10;100674.72;;;7.05;100.00
70546;BME280;58098;51.680;5.134;2023-04-23T03:24:36;100680.81;;;7.04;100.00
70546;BME280;58098;51.680;5.134;2023-04-23T03:27:01;100681.84;;;7.02;100.00
70546;BME280;58098;51.680;5.134;2023-04-23T03:29:26;100666.81;;;6.94;100.00
70546;BME280;58098;51.680;5.134;2023-04-23T03:31:52;100661.63;;;6.94;100.00
70546;BME280;58098;51.680;5.134;2023-04-23T03:34:17;100679.97;;;7.04;100.00
70546;BME280;58098;51.680;5.134;2023-04-23T03:36:43;100666.94;;;7.05;100.00
70546;BME280;58098;51.680;5.134;2023-04-23T03:39:10;100662.47;;;7.07;100.00
70546;BME280;58098;51.680;5.134;2023-04-23T03:41:36;100668.69;;;7.17;100.00
70546;BME280;58098;51.680;5.134;2023-04-23T03:44:01;100670.56;;;7.15;100.00
70546;BME280;58098;51.680;5.134;2023-04-23T03:46:27;100658.19;;;7.06;100.00
70546;BME280;58098;51.680;5.134;2023-04-23T03:48:52;100668.19;;;7.12;100.00
70546;BME280;58098;51.680;5.134;2023-04-23T03:51:17;100668.56;;;7.06;100.00
70546;BME280;58098;51.680;5.134;2023-04-23T03:53:43;100672.66;;;7.10;100.00
70546;BME280;58098;51.680;5.134;2023-04-23T03:56:09;100676.47;;;7.17;100.00
70546;BME280;58098;51.680;5.134;2023-04-23T03:58:35;100660.59;;;7.09;100.00
70546;BME280;58098;51.680;5.134;2023-04-23T04:01:00;100672.00;;;7.19;100.00
70546;BME280;58098;51.680;5.134;2023-04-23T04:03:25;100667.53;;;7.21;100.00
70546;BME280;58098;51.680;5.134;2023-04-23T04:05:50;100654.47;;;7.10;100.00
70546;BME280;58098;51.680;5.134;2023-04-23T04:08:16;100669.81;;;7.13;100.00
70546;BME280;58098;51.680;5.134;2023-04-23T04:10:41;100673.56;;;7.09;100.00
70546;BME280;58098;51.680;5.134;2023-04-23T04:13:07;100672.84;;;7.07;100.00
70546;BME280;58098;51.680;5.134;2023-04-23T04:15:32;100675.00;;;7.13;100.00
70546;BME280;58098;51.680;5.134;2023-04-23T04:17:57;100672.72;;;7.09;100.00
70546;BME280;58098;51.680;5.134;2023-04-23T04:20:25;100673.44;;;7.11;100.00
70546;BME280;58098;51.680;5.134;2023-04-23T04:22:53;100644.69;;;6.89;100.00
70546;BME280;58098;51.680;5.134;2023-04-23T04:25:19;100659.75;;;6.96;100.00
70546;BME280;58098;51.680;5.134;2023-04-23T04:27:46;100687.88;;;7.02;100.00
70546;BME280;58098;51.680;5.134;2023-04-23T04:30:12;100669.19;;;6.97;100.00
70546;BME280;58098;51.680;5.134;2023-04-23T04:32:38;100675.75;;;7.03;100.00
70546;BME280;58098;51.680;5.134;2023-04-23T04:35:05;100668.88;;;7.02;100.00
70546;BME280;58098;51.680;5.134;2023-04-23T04:37:31;100683.03;;;7.10;100.00
70546;BME280;58098;51.680;5.134;2023-04-23T04:39:56;100666.69;;;7.08;100.00
70546;BME280;58098;51.680;5.134;2023-04-23T04:42:21;100676.16;;;7.09;100.00
70546;BME280;58098;51.680;5.134;2023-04-23T04:44:47;100669.00;;;7.00;100.00
70546;BME280;58098;51.680;5.134;2023-04-23T04:47:12;100682.50;;;7.05;100.00
70546;BME280;58098;51.680;5.134;2023-04-23T04:49:37;100670.88;;;6.98;100.00
70546;BME280;58098;51.680;5.134;2023-04-23T04:52:03;100677.09;;;6.96;100.00
70546;BME280;58098;51.680;5.134;2023-04-23T04:54:28;100667.09;;;6.90;100.00
70546;BME280;58098;51.680;5.134;2023-04-23T04:56:53;100668.34;;;6.97;100.00
70546;BME280;58098;51.680;5.134;2023-04-23T04:59:19;100684.25;;;7.05;100.00
70546;BME280;58098;51.680;5.134;2023-04-23T05:01:44;100686.22;;;7.14;100.00
70546;BME280;58098;51.680;5.134;2023-04-23T05:04:10;100673.97;;;7.03;100.00
70546;BME280;58098;51.680;5.134;2023-04-23T05:06:35;100680.44;;;7.10;100.00
70546;BME280;58098;51.680;5.134;2023-04-23T05:09:00;100673.56;;;7.09;100.00
70546;BME280;58098;51.680;5.134;2023-04-23T05:11:26;100668.25;;;7.11;100.00
70546;BME280;58098;51.680;5.134;2023-04-23T05:13:51;100677.06;;;7.08;100.00
70546;BME280;58098;51.680;5.134;2023-04-23T05:16:17;100675.00;;;7.13;100.00
70546;BME280;58098;51.680;5.134;2023-04-23T05:18:42;100658.53;;;7.14;100.00
70546;BME280;58098;51.680;5.134;2023-04-23T05:21:08;100687.06;;;7.27;100.00
70546;BME280;58098;51.680;5.134;2023-04-23T05:23:34;100679.59;;;7.22;100.00
70546;BME280;58098;51.680;5.134;2023-04-23T05:25:59;100671.06;;;7.20;100.00
70546;BME280;58098;51.680;5.134;2023-04-23T05:28:27;100679.38;;;7.25;100.00
70546;BME280;58098;51.680;5.134;2023-04-23T05:30:52;100676.25;;;7.20;100.00
70546;BME280;58098;51.680;5.134;2023-04-23T05:33:18;100676.06;;;7.23;100.00
70546;BME280;58098;51.680;5.134;2023-04-23T05:35:43;100685.19;;;7.42;100.00
70546;BME280;58098;51.680;5.134;2023-04-23T05:38:08;100662.44;;;7.45;100.00
70546;BME280;58098;51.680;5.134;2023-04-23T05:40:34;100675.41;;;7.58;100.00
70546;BME280;58098;51.680;5.134;2023-04-23T05:43:00;100682.47;;;7.68;100.00
70546;BME280;58098;51.680;5.134;2023-04-23T05:45:26;100667.53;;;7.59;100.00
70546;BME280;58098;51.680;5.134;2023-04-23T05:47:51;100681.00;;;7.64;100.00
70546;BME280;58098;51.680;5.134;2023-04-23T05:50:17;100677.59;;;7.64;100.00
70546;BME280;58098;51.680;5.134;2023-04-23T05:52:43;100679.53;;;7.73;100.00
70546;BME280;58098;51.680;5.134;2023-04-23T05:55:08;100679.53;;;7.73;100.00
70546;BME280;58098;51.680;5.134;2023-04-23T05:57:37;100675.88;;;7.88;100.00
70546;BME280;58098;51.680;5.134;2023-04-23T06:00:04;100684.63;;;8.11;100.00
70546;BME280;58098;51.680;5.134;2023-04-23T06:02:30;100676.22;;;8.07;100.00
70546;BME280;58098;51.680;5.134;2023-04-23T06:04:55;100654.72;;;8.05;100.00
70546;BME280;58098;51.680;5.134;2023-04-23T06:07:21;100676.91;;;8.22;100.00
70546;BME280;58098;51.680;5.134;2023-04-23T06:09:46;100658.09;;;8.18;100.00
70546;BME280;58098;51.680;5.134;2023-04-23T06:12:11;100656.53;;;8.28;100.00
70546;BME280;58098;51.680;5.134;2023-04-23T06:14:37;100654.22;;;8.36;100.00
70546;BME280;58098;51.680;5.134;2023-04-23T06:17:02;100661.41;;;8.56;100.00
70546;BME280;58098;51.680;5.134;2023-04-23T06:19:27;100644.41;;;8.63;100.00
70546;BME280;58098;51.680;5.134;2023-04-23T06:21:53;100639.69;;;8.80;100.00
70546;BME280;58098;51.680;5.134;2023-04-23T06:24:18;100640.19;;;8.85;100.00
70546;BME280;58098;51.680;5.134;2023-04-23T06:26:44;100633.84;;;9.00;100.00
70546;BME280;58098;51.680;5.134;2023-04-23T06:29:09;100627.56;;;9.02;100.00
70546;BME280;58098;51.680;5.134;2023-04-23T06:31:34;100635.03;;;9.18;100.00
70546;BME280;58098;51.680;5.134;2023-04-23T06:34:00;100613.97;;;9.21;100.00
70546;BME280;58098;51.680;5.134;2023-04-23T06:36:25;100625.59;;;9.39;100.00
70546;BME280;58098;51.680;5.134;2023-04-23T06:38:51;100623.19;;;9.47;100.00
70546;BME280;58098;51.680;5.134;2023-04-23T06:41:16;100617.53;;;9.53;100.00
70546;BME280;58098;51.680;5.134;2023-04-23T06:43:42;100634.41;;;9.81;100.00
70546;BME280;58098;51.680;5.134;2023-04-23T06:46:07;100630.00;;;9.92;100.00
70546;BME280;58098;51.680;5.134;2023-04-23T06:48:32;100620.75;;;10.00;100.00
70546;BME280;58098;51.680;5.134;2023-04-23T06:50:58;100620.72;;;10.22;100.00
70546;BME280;58098;51.680;5.134;2023-04-23T06:53:23;100612.16;;;10.20;100.00
70546;BME280;58098;51.680;5.134;2023-04-23T06:55:48;100618.97;;;10.43;100.00
70546;BME280;58098;51.680;5.134;2023-04-23T06:58:15;100626.72;;;10.54;100.00
70546;BME280;58098;51.680;5.134;2023-04-23T07:00:41;100610.34;;;10.63;100.00
70546;BME280;58098;51.680;5.134;2023-04-23T07:03:06;100629.28;;;10.86;100.00
70546;BME280;58098;51.680;5.134;2023-04-23T07:05:31;100614.16;;;10.80;100.00
70546;BME280;58098;51.680;5.134;2023-04-23T07:07:57;100618.78;;;10.97;100.00
70546;BME280;58098;51.680;5.134;2023-04-23T07:10:23;100595.34;;;11.06;100.00
70546;BME280;58098;51.680;5.134;2023-04-23T07:12:48;100611.09;;;11.25;100.00
70546;BME280;58098;51.680;5.134;2023-04-23T07:15:14;100619.53;;;11.39;100.00
70546;BME280;58098;51.680;5.134;2023-04-23T07:17:39;100624.03;;;11.67;100.00
70546;BME280;58098;51.680;5.134;2023-04-23T07:20:06;100608.56;;;11.54;100.00
70546;BME280;58098;51.680;5.134;2023-04-23T07:22:32;100617.41;;;11.63;100.00
70546;BME280;58098;51.680;5.134;2023-04-23T07:24:58;100614.75;;;11.83;100.00
70546;BME280;58098;51.680;5.134;2023-04-23T07:27:24;100611.06;;;12.05;100.00
70546;BME280;58098;51.680;5.134;2023-04-23T07:29:49;100618.13;;;12.24;100.00
70546;BME280;58098;51.680;5.134;2023-04-23T07:32:15;100617.00;;;12.36;100.00
70546;BME280;58098;51.680;5.134;2023-04-23T07:34:40;100620.03;;;12.50;100.00
70546;BME280;58098;51.680;5.134;2023-04-23T07:37:05;100620.28;;;12.67;100.00
70546;BME280;58098;51.680;5.134;2023-04-23T07:39:31;100611.31;;;12.69;100.00
70546;BME280;58098;51.680;5.134;2023-04-23T07:41:57;100616.28;;;12.82;100.00
70546;BME280;58098;51.680;5.134;2023-04-23T07:44:22;100611.88;;;12.73;100.00
70546;BME280;58098;51.680;5.134;2023-04-23T07:46:48;100613.94;;;12.79;100.00
70546;BME280;58098;51.680;5.134;2023-04-23T07:49:13;100606.09;;;12.69;100.00
70546;BME280;58098;51.680;5.134;2023-04-23T07:51:39;100623.16;;;12.83;100.00
70546;BME280;58098;51.680;5.134;2023-04-23T07:54:04;100606.31;;;13.14;100.00
70546;BME280;58098;51.680;5.134;2023-04-23T07:56:29;100614.94;;;13.24;100.00
70546;BME280;58098;51.680;5.134;2023-04-23T07:58:59;100614.81;;;13.53;100.00
70546;BME280;58098;51.680;5.134;2023-04-23T08:01:25;100617.00;;;13.57;100.00
70546;BME280;58098;51.680;5.134;2023-04-23T08:03:50;100601.75;;;13.70;100.00
70546;BME280;58098;51.680;5.134;2023-04-23T08:06:16;100616.72;;;14.05;100.00
70546;BME280;58098;51.680;5.134;2023-04-23T08:08:42;100601.19;;;14.12;100.00
70546;BME280;58098;51.680;5.134;2023-04-23T08:11:08;100614.69;;;14.17;100.00
70546;BME280;58098;51.680;5.134;2023-04-23T08:13:33;100611.47;;;14.23;100.00
70546;BME280;58098;51.680;5.134;2023-04-23T08:15:58;100595.88;;;14.21;100.00
70546;BME280;58098;51.680;5.134;2023-04-23T08:18:24;100593.22;;;14.31;100.00
70546;BME280;58098;51.680;5.134;2023-04-23T08:20:49;100587.03;;;14.58;100.00
70546;BME280;58098;51.680;5.134;2023-04-23T08:23:15;100601.44;;;14.53;100.00
70546;BME280;58098;51.680;5.134;2023-04-23T08:25:40;100593.63;;;14.87;100.00
70546;BME280;58098;51.680;5.134;2023-04-23T08:28:05;100588.56;;;15.19;100.00
70546;BME280;58098;51.680;5.134;2023-04-23T08:30:31;100592.44;;;15.33;100.00
70546;BME280;58098;51.680;5.134;2023-04-23T08:32:57;100576.66;;;15.41;100.00
70546;BME280;58098;51.680;5.134;2023-04-23T08:35:22;100591.84;;;15.47;100.00
70546;BME280;58098;51.680;5.134;2023-04-23T08:37:48;100585.13;;;15.53;100.00
70546;BME280;58098;51.680;5.134;2023-04-23T08:40:13;100588.66;;;15.69;100.00
70546;BME280;58098;51.680;5.134;2023-04-23T08:45:12;100589.56;;;16.42;100.00
70546;BME280;58098;51.680;5.134;2023-04-23T08:47:41;100578.69;;;16.45;100.00
70546;BME280;58098;51.680;5.134;2023-04-23T08:50:09;100597.88;;;15.90;100.00
70546;BME280;58098;51.680;5.134;2023-04-23T08:52:39;100590.59;;;15.34;100.00
70546;BME280;58098;51.680;5.134;2023-04-23T08:55:06;100589.78;;;15.75;100.00
70546;BME280;58098;51.680;5.134;2023-04-23T08:57:36;100586.69;;;15.38;100.00
70546;BME280;58098;51.680;5.134;2023-04-23T09:00:03;100588.41;;;16.13;100.00
70546;BME280;58098;51.680;5.134;2023-04-23T09:02:42;100581.50;;;16.44;100.00
70546;BME280;58098;51.680;5.134;2023-04-23T09:05:08;100580.31;;;16.87;100.00
70546;BME280;58098;51.680;5.134;2023-04-23T09:07:34;100582.91;;;17.11;100.00
70546;BME280;58098;51.680;5.134;2023-04-23T09:10:01;100575.38;;;17.47;100.00
70546;BME280;58098;51.680;5.134;2023-04-23T09:12:26;100577.91;;;17.71;100.00
70546;BME280;58098;51.680;5.134;2023-04-23T09:14:52;100584.25;;;17.85;100.00
70546;BME280;58098;51.680;5.134;2023-04-23T09:17:18;100589.00;;;18.20;100.00
70546;BME280;58098;51.680;5.134;2023-04-23T09:19:44;100580.63;;;18.31;100.00
70546;BME280;58098;51.680;5.134;2023-04-23T09:22:13;100585.94;;;18.54;100.00
70546;BME280;58098;51.680;5.134;2023-04-23T09:24:41;100563.09;;;18.75;100.00
70546;BME280;58098;51.680;5.134;2023-04-23T09:27:08;100575.72;;;19.02;100.00
70546;BME280;58098;51.680;5.134;2023-04-23T09:29:33;100584.34;;;18.96;100.00
70546;BME280;58098;51.680;5.134;2023-04-23T09:32:07;100585.94;;;19.05;100.00
70546;BME280;58098;51.680;5.134;2023-04-23T09:34:34;100609.09;;;18.52;100.00
70546;BME280;58098;51.680;5.134;2023-04-23T09:37:01;100600.19;;;17.99;100.00
70546;BME280;58098;51.680;5.134;2023-04-23T09:39:27;100594.81;;;17.85;100.00
70546;BME280;58098;51.680;5.134;2023-04-23T09:41:53;100578.63;;;17.88;100.00
70546;BME280;58098;51.680;5.134;2023-04-23T09:44:20;100599.75;;;17.49;100.00
70546;BME280;58098;51.680;5.134;2023-04-23T09:46:50;100572.25;;;18.05;100.00
70546;BME280;58098;51.680;5.134;2023-04-23T09:49:16;100556.06;;;18.68;100.00
70546;BME280;58098;51.680;5.134;2023-04-23T09:51:46;100575.50;;;18.75;100.00
70546;BME280;58098;51.680;5.134;2023-04-23T09:54:15;100569.88;;;19.07;100.00
70546;BME280;58098;51.680;5.134;2023-04-23T09:56:43;100572.03;;;19.03;100.00
70546;BME280;58098;51.680;5.134;2023-04-23T09:59:30;100577.44;;;19.25;100.00
70546;BME280;58098;51.680;5.134;2023-04-23T10:02:00;100564.88;;;19.41;100.00
70546;BME280;58098;51.680;5.134;2023-04-23T10:04:26;100574.97;;;19.38;100.00
70546;BME280;58098;51.680;5.134;2023-04-23T10:07:02;100587.91;;;19.33;100.00
70546;BME280;58098;51.680;5.134;2023-04-23T10:09:29;100566.38;;;19.36;100.00
70546;BME280;58098;51.680;5.134;2023-04-23T10:12:00;100578.97;;;18.90;100.00
70546;BME280;58098;51.680;5.134;2023-04-23T10:14:27;100566.19;;;19.52;100.00
70546;BME280;58098;51.680;5.134;2023-04-23T10:17:00;100561.28;;;19.85;100.00
70546;BME280;58098;51.680;5.134;2023-04-23T10:19:27;100571.09;;;20.05;100.00
70546;BME280;58098;51.680;5.134;2023-04-23T10:21:57;100551.25;;;20.01;100.00
70546;BME280;58098;51.680;5.134;2023-04-23T10:24:28;100552.81;;;20.59;100.00
70546;BME280;58098;51.680;5.134;2023-04-23T10:26:59;100567.31;;;20.35;100.00
70546;BME280;58098;51.680;5.134;2023-04-23T10:29:29;100560.44;;;20.69;100.00
70546;BME280;58098;51.680;5.134;2023-04-23T10:31:58;100555.91;;;20.63;100.00
70546;BME280;58098;51.680;5.134;2023-04-23T10:34:24;100547.88;;;20.84;100.00
70546;BME280;58098;51.680;5.134;2023-04-23T10:36:50;100538.75;;;20.93;100.00
70546;BME280;58098;51.680;5.134;2023-04-23T10:39:20;100552.56;;;20.54;100.00
70546;BME280;58098;51.680;5.134;2023-04-23T10:41:47;100552.25;;;20.64;100.00
70546;BME280;58098;51.680;5.134;2023-04-23T10:44:13;100531.59;;;20.87;100.00
70546;BME280;58098;51.680;5.134;2023-04-23T10:46:50;100535.31;;;20.92;100.00
70546;BME280;58098;51.680;5.134;2023-04-23T10:49:15;100536.69;;;21.23;100.00
70546;BME280;58098;51.680;5.134;2023-04-23T10:51:44;100538.75;;;21.27;100.00
70546;BME280;58098;51.680;5.134;2023-04-23T10:54:13;100540.41;;;21.28;100.00
70546;BME280;58098;51.680;5.134;2023-04-23T10:56:40;100521.44;;;20.97;100.00
70546;BME280;58098;51.680;5.134;2023-04-23T10:59:19;100515.50;;;21.29;100.00
70546;BME280;58098;51.680;5.134;2023-04-23T11:01:51;100530.25;;;21.38;100.00
70546;BME280;58098;51.680;5.134;2023-04-23T11:04:23;100528.88;;;21.08;100.00
70546;BME280;58098;51.680;5.134;2023-04-23T11:06:54;100527.66;;;21.11;100.00
70546;BME280;58098;51.680;5.134;2023-04-23T11:09:40;100509.38;;;21.35;100.00
70546;BME280;58098;51.680;5.134;2023-04-23T11:12:11;100520.47;;;21.45;100.00
70546;BME280;58098;51.680;5.134;2023-04-23T11:17:05;100507.19;;;20.64;100.00
70546;BME280;58098;51.680;5.134;2023-04-23T11:19:34;100496.84;;;21.10;100.00
70546;BME280;58098;51.680;5.134;2023-04-23T11:22:04;100495.06;;;21.23;100.00
70546;BME280;58098;51.680;5.134;2023-04-23T11:24:32;100486.69;;;20.85;100.00
70546;BME280;58098;51.680;5.134;2023-04-23T11:26:59;100491.19;;;20.85;100.00
70546;BME280;58098;51.680;5.134;2023-04-23T11:29:26;100493.81;;;21.19;100.00
70546;BME280;58098;51.680;5.134;2023-04-23T11:31:52;100471.41;;;21.35;100.00
70546;BME280;58098;51.680;5.134;2023-04-23T11:34:18;100473.88;;;21.36;100.00
70546;BME280;58098;51.680;5.134;2023-04-23T11:36:45;100468.91;;;21.20;100.00
70546;BME280;58098;51.680;5.134;2023-04-23T11:39:11;100470.00;;;21.45;100.00
70546;BME280;58098;51.680;5.134;2023-04-23T11:41:36;100460.59;;;21.43;100.00
70546;BME280;58098;51.680;5.134;2023-04-23T11:44:02;100463.19;;;21.23;100.00
70546;BME280;58098;51.680;5.134;2023-04-23T11:46:28;100470.94;;;21.18;100.00
70546;BME280;58098;51.680;5.134;2023-04-23T11:48:54;100446.88;;;21.33;100.00
70546;BME280;58098;51.680;5.134;2023-04-23T11:51:25;100457.44;;;21.93;100.00
70546;BME280;58098;51.680;5.134;2023-04-23T11:53:51;100450.28;;;22.00;100.00
70546;BME280;58098;51.680;5.134;2023-04-23T11:56:16;100440.03;;;22.43;100.00
70546;BME280;58098;51.680;5.134;2023-04-23T11:58:43;100444.88;;;22.79;100.00
70546;BME280;58098;51.680;5.134;2023-04-23T12:01:11;100430.44;;;23.06;100.00
70546;BME280;58098;51.680;5.134;2023-04-23T12:03:37;100425.66;;;22.57;100.00
70546;BME280;58098;51.680;5.134;2023-04-23T12:06:03;100431.41;;;22.67;100.00
70546;BME280;58098;51.680;5.134;2023-04-23T12:08:32;100421.22;;;22.38;100.00
70546;BME280;58098;51.680;5.134;2023-04-23T12:11:01;100410.13;;;22.67;100.00
70546;BME280;58098;51.680;5.134;2023-04-23T12:13:29;100403.22;;;22.97;100.00
70546;BME280;58098;51.680;5.134;2023-04-23T12:15:56;100409.91;;;23.13;100.00
70546;BME280;58098;51.680;5.134;2023-04-23T12:18:32;100395.81;;;23.44;100.00
70546;BME280;58098;51.680;5.134;2023-04-23T12:21:10;100394.66;;;23.27;100.00
70546;BME280;58098;51.680;5.134;2023-04-23T12:23:37;100389.06;;;23.04;100.00
70546;BME280;58098;51.680;5.134;2023-04-23T12:26:03;100397.75;;;22.92;100.00
70546;BME280;58098;51.680;5.134;2023-04-23T12:28:28;100390.22;;;23.21;100.00
70546;BME280;58098;51.680;5.134;2023-04-23T12:30:59;100390.25;;;23.14;100.00
70546;BME280;58098;51.680;5.134;2023-04-23T12:33:28;100367.13;;;22.70;100.00
70546;BME280;58098;51.680;5.134;2023-04-23T12:35:54;100384.75;;;22.52;100.00
70546;BME280;58098;51.680;5.134;2023-04-23T12:38:24;100376.19;;;22.36;100.00
70546;BME280;58098;51.680;5.134;2023-04-23T12:40:56;100366.66;;;22.03;100.00
70546;BME280;58098;51.680;5.134;2023-04-23T12:43:22;100377.13;;;21.85;100.00
70546;BME280;58098;51.680;5.134;2023-04-23T12:45:47;100363.44;;;21.88;100.00